Time;durP1;ratioP1;P1;durP2;ratioP2;P2;SDS_P1;SDS_P2;PMS_P1;PMS_P2;Temp;Humidity;BMP_temperature;BMP_pressure;BME280_temperature;BME280_humidity;BME280_pressure;Samples;Min_cycle;Max_cycle;Signal;HPM_P1;HPM_P2
2023/11/17 00:01:47;;;;;;;16.58;8.18;;;;;;;8.89;65.89;101550.44;6155710;22;123066;-77
2023/11/17 00:04:16;;;;;;;19.30;9.23;;;;;;;8.88;65.87;101554.00;6157881;22;108944;-77
2023/11/17 00:06:45;;;;;;;16.48;8.52;;;;;;;8.86;65.88;101566.41;6159398;22;109152;-76
2023/11/17 00:09:15;;;;;;;15.05;8.60;;;;;;;8.85;65.75;101569.94;6157161;22;124105;-77
2023/11/17 00:11:42;;;;;;;16.23;9.02;;;;;;;8.84;65.70;101568.22;6153076;22;124224;-77
2023/11/17 00:14:10;;;;;;;15.27;8.77;;;;;;;8.82;65.69;101570.03;6157408;22;110425;-76
2023/11/17 00:16:39;;;;;;;18.15;8.88;;;;;;;8.80;65.76;101569.16;6156612;22;109146;-77
2023/11/17 00:19:07;;;;;;;17.70;9.25;;;;;;;8.80;65.83;101577.97;6158387;22;123512;-76
2023/11/17 00:21:40;;;;;;;17.02;8.88;;;;;;;8.77;66.02;101573.63;6156996;22;124193;-76
2023/11/17 00:24:09;;;;;;;15.23;8.88;;;;;;;8.77;65.84;101573.63;6157505;22;109113;-76
2023/11/17 00:27:03;;;;;;;14.93;9.10;;;;;;;8.76;65.85;101582.47;6158657;22;109681;-76
2023/11/17 00:29:30;;;;;;;17.42;8.70;;;;;;;8.75;65.74;101574.59;6157721;22;124394;-76
2023/11/17 00:32:00;;;;;;;14.48;9.13;;;;;;;8.74;65.91;101584.28;6154901;22;123482;-75
2023/11/17 00:34:27;;;;;;;14.18;8.80;;;;;;;8.73;65.74;101587.81;6156894;22;109110;-76
2023/11/17 00:36:54;;;;;;;18.05;9.40;;;;;;;8.73;65.90;101587.81;6160358;22;109341;-76
2023/11/17 00:39:25;;;;;;;14.50;9.15;;;;;;;8.73;65.98;101592.25;6180245;22;123238;-75
2023/11/17 00:41:52;;;;;;;16.13;9.45;;;;;;;8.71;66.01;101594.91;6156127;22;124638;-75
2023/11/17 00:44:20;;;;;;;16.55;9.73;;;;;;;8.71;65.81;101600.19;6156574;22;108905;-75
2023/11/17 00:46:49;;;;;;;18.02;9.43;;;;;;;8.70;65.77;101598.47;6157187;22;109888;-75
2023/11/17 00:49:17;;;;;;;16.40;8.98;;;;;;;8.68;65.62;101600.31;6158093;22;123469;-75
2023/11/17 00:51:45;;;;;;;20.10;9.55;;;;;;;8.68;66.07;101605.59;6155937;22;125078;-75
2023/11/17 00:54:14;;;;;;;20.80;9.93;;;;;;;8.68;65.72;101608.22;6157909;22;109196;-75
2023/11/17 00:56:41;;;;;;;16.70;8.77;;;;;;;8.67;66.10;101609.13;6157986;22;109354;-75
2023/11/17 00:59:11;;;;;;;17.27;9.68;;;;;;;8.68;65.79;101610.88;6156712;22;124191;-75
2023/11/17 01:01:40;;;;;;;16.05;8.80;;;;;;;8.67;65.97;101619.69;6156991;22;123673;-75
2023/11/17 01:04:09;;;;;;;15.85;9.07;;;;;;;8.66;65.80;101612.66;6156605;22;110243;-74
2023/11/17 01:06:36;;;;;;;15.68;9.50;;;;;;;8.65;65.81;101616.22;6156991;22;109186;-75
2023/11/17 01:09:17;;;;;;;14.98;8.93;;;;;;;8.63;66.02;101622.44;6158994;22;125227;-76
2023/11/17 01:11:45;;;;;;;18.00;9.00;;;;;;;8.62;65.50;101621.56;6156601;22;123045;-76
2023/11/17 01:14:12;;;;;;;18.02;9.52;;;;;;;8.61;65.60;101619.84;6158530;22;109963;-77
2023/11/17 01:16:40;;;;;;;17.50;9.43;;;;;;;8.59;65.59;101626.94;6132386;22;108338;-76
2023/11/17 01:19:08;;;;;;;14.73;9.20;;;;;;;8.58;65.57;101641.03;6131534;22;123422;-76
2023/11/17 01:21:35;;;;;;;16.70;9.35;;;;;;;8.54;65.75;101640.22;6131358;22;123338;-76
2023/11/17 01:24:05;;;;;;;14.63;8.98;;;;;;;8.54;65.78;101644.66;6159255;22;109261;-76
2023/11/17 01:26:32;;;;;;;18.27;9.23;;;;;;;8.51;65.77;101644.72;6158928;22;109090;-77
2023/11/17 01:29:00;;;;;;;17.27;8.98;;;;;;;8.49;65.43;101641.22;6155169;22;122927;-77
2023/11/17 01:31:46;;;;;;;19.23;9.88;;;;;;;8.46;65.60;101647.47;6156911;22;123008;-77
2023/11/17 01:34:13;;;;;;;17.20;9.13;;;;;;;8.45;65.77;101644.84;6159446;22;109531;-76
2023/11/17 01:36:43;;;;;;;16.65;9.73;;;;;;;8.42;65.87;101644.91;6157407;22;109026;-75
2023/11/17 01:39:13;;;;;;;16.88;9.38;;;;;;;8.41;65.58;101643.16;6156347;22;124557;-75
2023/11/17 01:41:42;;;;;;;18.20;9.35;;;;;;;8.39;65.57;101641.41;6158131;22;124379;-75
2023/11/17 01:44:10;;;;;;;18.85;9.95;;;;;;;8.38;65.92;101650.25;6155994;22;108436;-75
2023/11/17 01:47:07;;;;;;;20.27;9.80;;;;;;;8.35;65.64;101650.31;6161053;22;109589;-76
2023/11/17 01:49:35;;;;;;;24.33;10.00;;;;;;;8.35;65.89;101645.03;6158484;22;123599;-76
2023/11/17 01:52:12;;;;;;;17.55;9.90;;;;;;;8.34;65.90;101643.31;6156714;22;123611;-76
2023/11/17 01:54:40;;;;;;;19.80;10.25;;;;;;;8.33;65.78;101645.97;6159971;22;110291;-76
2023/11/17 01:57:18;;;;;;;16.33;9.90;;;;;;;8.30;65.79;101644.25;6157014;22;109767;-76
2023/11/17 01:59:47;;;;;;;16.75;9.32;;;;;;;8.30;65.86;101652.19;6158773;22;124270;-76
2023/11/17 02:02:15;;;;;;;18.80;10.30;;;;;;;8.32;65.85;101655.66;6157968;22;123683;-77
2023/11/17 02:04:42;;;;;;;14.63;9.20;;;;;;;8.32;65.86;101649.50;6156695;22;108776;-75
2023/11/17 02:07:39;;;;;;;21.67;10.05;;;;;;;8.32;66.07;101653.00;6158858;22;107361;-76
2023/11/17 02:10:13;;;;;;;19.60;9.48;;;;;;;8.33;66.01;101656.53;6159070;22;124571;-77
2023/11/17 02:13:25;;;;;;;17.25;9.45;;;;;;;8.34;66.18;101652.97;6095863;23;127171;-76
2023/11/17 02:16:01;;;;;;;15.00;8.65;;;;;;;8.34;66.06;101659.16;6073364;23;109069;-76
2023/11/17 02:18:46;;;;;;;16.45;9.25;;;;;;;8.34;66.42;101659.16;5981827;23;109098;-77
2023/11/17 02:21:31;;;;;;;15.07;9.18;;;;;;;8.34;66.08;101659.16;5980907;23;124086;-77
2023/11/17 02:24:06;;;;;;;18.55;9.85;;;;;;;8.36;65.98;101659.97;5981424;23;124672;-76
2023/11/17 02:30:20;;;;;;;19.67;10.40;;;;;;;8.35;66.10;101671.44;6000474;23;109467;-77
2023/11/17 02:32:48;;;;;;;17.60;10.00;;;;;;;8.35;66.08;101666.16;6039541;23;123662;-76
2023/11/17 02:35:50;;;;;;;19.98;10.45;;;;;;;8.37;66.21;101669.63;6065387;23;123124;-76
2023/11/17 02:38:17;;;;;;;17.85;9.85;;;;;;;8.38;66.15;101671.38;6129321;22;109125;-76
2023/11/17 02:40:45;;;;;;;16.98;10.00;;;;;;;8.39;66.18;101662.53;6156862;22;108711;-76
2023/11/17 02:43:13;;;;;;;19.15;9.65;;;;;;;8.41;66.47;101669.56;6154223;22;124413;-76
2023/11/17 02:45:53;;;;;;;15.05;9.23;;;;;;;8.43;66.51;101667.78;6155566;22;123665;-76
2023/11/17 02:48:22;;;;;;;14.98;8.93;;;;;;;8.44;66.29;101680.94;6156227;22;110610;-77
2023/11/17 02:51:22;;;;;;;15.90;9.35;;;;;;;8.44;66.30;101665.13;6010965;23;110177;-76
2023/11/17 02:54:09;;;;;;;15.63;9.40;;;;;;;8.44;66.20;101658.94;5990439;23;123164;-78
2023/11/17 02:56:39;;;;;;;14.85;9.05;;;;;;;8.44;66.29;101669.50;6010289;23;123336;-77
2023/11/17 02:59:21;;;;;;;17.88;9.90;;;;;;;8.44;66.28;101664.22;6011305;23;109016;-77
2023/11/17 03:01:52;;;;;;;18.20;9.95;;;;;;;8.45;65.94;101668.63;6034014;23;108927;-75
2023/11/17 03:04:19;;;;;;;18.05;10.10;;;;;;;8.45;66.24;101664.19;6033620;23;124133;-74
2023/11/17 03:06:49;;;;;;;15.80;9.57;;;;;;;8.47;66.34;101670.31;6033018;23;123850;-74
2023/11/17 03:09:23;;;;;;;17.85;9.60;;;;;;;8.48;66.55;101671.19;6098195;22;109691;-74
2023/11/17 03:11:51;;;;;;;17.17;10.23;;;;;;;8.48;66.36;101676.47;6153019;22;108713;-74
2023/11/17 03:14:24;;;;;;;16.30;9.43;;;;;;;8.48;66.25;101671.19;6153089;22;124239;-74
2023/11/17 03:16:52;;;;;;;18.70;9.48;;;;;;;8.49;66.17;101667.63;6154131;22;125468;-74
2023/11/17 03:19:23;;;;;;;17.00;9.52;;;;;;;8.49;66.15;101678.19;6155424;22;110156;-74
2023/11/17 03:21:54;;;;;;;21.40;9.77;;;;;;;8.49;66.01;101675.56;6154997;22;108601;-74
2023/11/17 03:24:23;;;;;;;17.48;10.45;;;;;;;8.49;66.38;101675.56;6150899;22;122685;-74
2023/11/17 03:26:55;;;;;;;21.67;10.18;;;;;;;8.49;66.27;101678.19;6154398;22;123903;-75
2023/11/17 03:29:24;;;;;;;18.30;9.57;;;;;;;8.47;66.35;101670.31;6155264;22;108920;-75
2023/11/17 03:31:53;;;;;;;18.42;9.43;;;;;;;8.46;65.95;101668.59;6156160;22;108550;-75
2023/11/17 03:34:29;;;;;;;15.85;8.65;;;;;;;8.45;66.18;101665.97;6154664;22;124726;-76
2023/11/17 03:37:02;;;;;;;17.23;9.13;;;;;;;8.44;66.08;101675.69;6155260;22;124642;-75
2023/11/17 03:39:32;;;;;;;16.35;8.65;;;;;;;8.44;66.30;101678.31;6155258;22;110497;-75
2023/11/17 03:42:01;;;;;;;17.17;9.40;;;;;;;8.42;66.13;101681.88;6156282;22;110398;-75
2023/11/17 03:44:29;;;;;;;16.55;9.38;;;;;;;8.43;66.37;101679.19;6156106;22;124374;-75
2023/11/17 03:46:58;;;;;;;19.65;9.65;;;;;;;8.43;66.07;101678.34;6157030;22;123542;-74
2023/11/17 03:49:27;;;;;;;18.42;9.82;;;;;;;8.42;66.12;101676.59;6157218;22;109296;-75
2023/11/17 03:51:55;;;;;;;19.33;10.27;;;;;;;8.41;65.80;101675.69;6154539;22;108802;-75
2023/11/17 03:54:23;;;;;;;17.50;9.57;;;;;;;8.41;66.36;101686.25;6155562;22;124788;-75
2023/11/17 03:56:54;;;;;;;16.73;9.65;;;;;;;8.37;65.97;101674.91;6154462;22;123568;-74
2023/11/17 03:59:24;;;;;;;18.60;9.52;;;;;;;8.37;66.25;101680.19;6157579;22;109481;-75
2023/11/17 04:01:52;;;;;;;15.88;9.18;;;;;;;8.37;66.25;101679.31;6155847;22;109514;-74
2023/11/17 04:04:20;;;;;;;17.55;10.15;;;;;;;8.37;66.20;101680.19;6154685;22;123895;-75
2023/11/17 04:06:51;;;;;;;17.27;9.75;;;;;;;8.38;66.31;101687.22;6155638;22;124022;-75
2023/11/17 04:09:21;;;;;;;17.17;9.40;;;;;;;8.38;66.26;101679.28;6156192;22;109463;-75
2023/11/17 04:11:50;;;;;;;18.52;10.18;;;;;;;8.38;66.19;101681.03;6154926;22;108395;-75
2023/11/17 04:14:21;;;;;;;18.52;10.52;;;;;;;8.38;66.34;101687.22;6153064;22;123357;-74
2023/11/17 04:16:50;;;;;;;31.40;10.65;;;;;;;8.39;66.54;101688.94;6151296;22;122872;-74
2023/11/17 04:19:19;;;;;;;20.95;10.55;;;;;;;8.39;66.15;101688.94;6154177;22;108348;-74
2023/11/17 04:21:49;;;;;;;64.60;11.93;;;;;;;8.39;66.33;101683.66;6156631;22;110037;-75
2023/11/17 04:24:16;;;;;;;48.53;11.48;;;;;;;8.41;66.21;101688.03;6156478;22;125186;-76
2023/11/17 04:26:46;;;;;;;25.42;10.43;;;;;;;8.41;66.16;101690.69;6155124;22;124298;-74
2023/11/17 04:29:14;;;;;;;31.13;11.45;;;;;;;8.41;66.17;101690.69;6155294;22;110632;-74
2023/11/17 04:31:42;;;;;;;19.10;10.65;;;;;;;8.39;66.18;101688.94;6155010;22;110409;-74
2023/11/17 04:34:11;;;;;;;18.85;10.10;;;;;;;8.38;66.25;101684.56;6155120;22;123908;-74
2023/11/17 04:36:39;;;;;;;18.20;10.32;;;;;;;8.38;66.20;101681.94;6155803;22;124559;-74
2023/11/17 04:39:17;;;;;;;17.90;10.02;;;;;;;8.39;66.51;101683.66;6155981;22;108981;-75
2023/11/17 04:41:46;;;;;;;23.58;11.02;;;;;;;8.41;66.44;101677.47;6156054;22;109856;-74
2023/11/17 04:44:14;;;;;;;20.33;10.55;;;;;;;8.42;66.56;101676.59;6154684;22;125253;-75
2023/11/17 04:46:42;;;;;;;27.00;11.48;;;;;;;8.43;66.47;101675.69;6153000;22;122548;-74
2023/11/17 04:49:12;;;;;;;21.08;11.75;;;;;;;8.44;66.16;101669.50;6154913;22;109676;-74
2023/11/17 04:51:46;;;;;;;22.27;11.00;;;;;;;8.43;66.53;101673.91;6153750;22;109006;-74
2023/11/17 04:54:14;;;;;;;21.83;10.82;;;;;;;8.46;66.36;101678.28;6155114;22;124908;-74
2023/11/17 04:56:41;;;;;;;23.00;11.18;;;;;;;8.45;66.30;101682.69;6155777;22;123774;-74
2023/11/17 04:59:13;;;;;;;20.40;11.35;;;;;;;8.47;66.64;101675.59;6156536;22;109588;-74
2023/11/17 05:01:40;;;;;;;23.90;11.02;;;;;;;8.48;66.73;101671.19;6156339;22;110374;-75
2023/11/17 05:04:08;;;;;;;22.88;11.02;;;;;;;8.48;66.24;101665.91;6156110;22;124058;-74
2023/11/17 05:06:36;;;;;;;20.70;10.90;;;;;;;8.49;66.04;101672.91;6155223;22;123670;-75
2023/11/17 05:09:12;;;;;;;20.38;10.73;;;;;;;8.49;66.32;101683.47;6155364;22;109522;-74
2023/11/17 05:11:39;;;;;;;18.65;11.02;;;;;;;8.49;66.43;101678.19;6155467;22;110501;-75
2023/11/17 05:14:07;;;;;;;21.10;10.98;;;;;;;8.48;66.12;101682.63;6151779;22;123784;-74
2023/11/17 05:16:37;;;;;;;21.67;11.02;;;;;;;8.47;66.22;101685.28;6152349;22;123246;-74
2023/11/17 05:19:05;;;;;;;22.23;11.23;;;;;;;8.47;66.47;101677.38;6155237;22;110006;-74
2023/11/17 05:21:33;;;;;;;20.33;10.75;;;;;;;8.47;66.41;101690.56;6153380;22;110575;-74
2023/11/17 05:24:02;;;;;;;25.15;11.07;;;;;;;8.47;66.21;101693.19;6155384;22;123920;-75
2023/11/17 05:26:31;;;;;;;17.73;10.57;;;;;;;8.48;66.57;101687.03;6154473;22;123755;-74
2023/11/17 05:28:59;;;;;;;20.55;10.38;;;;;;;8.48;66.78;101687.03;6155116;22;109741;-74
2023/11/17 05:31:27;;;;;;;20.33;9.70;;;;;;;8.49;66.51;101688.75;6156090;22;110026;-75
2023/11/17 05:33:57;;;;;;;16.90;10.15;;;;;;;8.51;66.35;101689.59;6154071;22;123189;-75
2023/11/17 05:36:25;;;;;;;20.33;10.23;;;;;;;8.51;66.42;101692.22;6156226;22;124634;-74
2023/11/17 05:38:52;;;;;;;17.67;10.07;;;;;;;8.53;66.55;101695.69;6155584;22;109365;-75
2023/11/17 05:41:22;;;;;;;19.77;10.50;;;;;;;8.53;66.71;101695.69;6155645;22;110005;-74
2023/11/17 05:43:49;;;;;;;19.00;10.43;;;;;;;8.53;66.53;101690.41;6154103;22;124388;-74
2023/11/17 05:46:18;;;;;;;20.60;9.85;;;;;;;8.52;66.46;101700.13;6155409;22;124604;-75
2023/11/17 05:48:46;;;;;;;20.10;10.30;;;;;;;8.51;66.59;101708.06;6156537;22;109611;-74
2023/11/17 05:51:13;;;;;;;15.95;9.90;;;;;;;8.53;66.41;101700.97;6156009;22;109957;-74
2023/11/17 05:53:40;;;;;;;17.88;9.68;;;;;;;8.52;66.29;101705.41;6155971;22;124394;-75
2023/11/17 05:56:07;;;;;;;16.40;9.43;;;;;;;8.53;66.49;101700.97;6156335;22;123835;-74
2023/11/17 05:58:35;;;;;;;17.52;9.27;;;;;;;8.54;66.41;101713.28;6155811;22;109268;-74
2023/11/17 06:01:03;;;;;;;14.38;8.52;;;;;;;8.55;66.39;101704.44;6155345;22;109402;-74
2023/11/17 06:03:31;;;;;;;16.80;9.43;;;;;;;8.56;66.61;101711.47;6154837;22;123870;-74
2023/11/17 06:05:59;;;;;;;16.38;8.75;;;;;;;8.56;66.62;101708.84;6155069;22;123563;-74
2023/11/17 06:08:31;;;;;;;16.40;9.68;;;;;;;8.57;66.80;101710.59;6155213;22;110789;-75
2023/11/17 06:10:59;;;;;;;13.55;8.75;;;;;;;8.57;66.79;101713.22;6157159;22;110328;-75
2023/11/17 06:13:28;;;;;;;12.65;8.77;;;;;;;8.55;66.69;101720.28;6152543;22;123227;-75
2023/11/17 06:15:55;;;;;;;15.95;8.77;;;;;;;8.56;66.28;101717.63;6156151;22;124034;-75
2023/11/17 06:18:24;;;;;;;16.02;9.57;;;;;;;8.56;66.41;101712.34;6154053;22;109279;-75
2023/11/17 06:20:51;;;;;;;15.07;8.40;;;;;;;8.57;66.58;101723.78;6155909;22;108698;-74
2023/11/17 06:23:18;;;;;;;14.73;8.68;;;;;;;8.57;66.44;101723.78;6154464;22;124590;-75
2023/11/17 06:25:45;;;;;;;15.55;9.20;;;;;;;8.57;66.54;101724.66;6155541;22;124218;-74
2023/11/17 06:28:15;;;;;;;15.63;9.57;;;;;;;8.57;66.43;101734.34;6155185;22;109117;-74
2023/11/17 06:30:43;;;;;;;14.18;8.75;;;;;;;8.56;66.57;101733.47;6155459;22;109864;-74
2023/11/17 06:33:10;;;;;;;15.43;9.13;;;;;;;8.56;66.33;101737.88;6154217;22;124038;-74
2023/11/17 06:35:37;;;;;;;15.85;9.10;;;;;;;8.56;66.36;101743.16;6153953;22;122965;-74
2023/11/17 06:38:05;;;;;;;15.18;9.25;;;;;;;8.55;66.58;101746.69;6155021;22;109279;-74
2023/11/17 06:40:32;;;;;;;15.60;8.98;;;;;;;8.55;66.67;101749.34;6153239;22;107053;-74
2023/11/17 06:42:59;;;;;;;14.60;8.73;;;;;;;8.54;66.50;101750.25;6154079;22;124496;-74
2023/11/17 06:45:27;;;;;;;14.20;8.88;;;;;;;8.54;66.81;101748.47;6152594;22;123248;-73
2023/11/17 06:47:55;;;;;;;14.90;9.35;;;;;;;8.54;66.26;101750.25;6154766;22;110500;-73
2023/11/17 06:50:23;;;;;;;15.05;9.25;;;;;;;8.55;66.35;101757.25;6156350;22;109108;-75
2023/11/17 06:52:50;;;;;;;15.32;9.32;;;;;;;8.54;66.58;101755.53;6154357;22;124328;-75
2023/11/17 06:55:18;;;;;;;14.95;9.20;;;;;;;8.55;66.19;101757.25;6153878;22;123906;-75
2023/11/17 06:57:46;;;;;;;13.80;9.63;;;;;;;8.56;66.52;101751.09;6153200;22;109159;-75
2023/11/17 07:00:14;;;;;;;17.10;8.93;;;;;;;8.55;66.49;101751.97;6156660;22;110384;-75
2023/11/17 07:02:44;;;;;;;12.73;8.00;;;;;;;8.56;66.33;101753.72;6154857;22;123931;-76
2023/11/17 07:05:11;;;;;;;14.40;8.10;;;;;;;8.56;66.39;101759.00;6155585;22;124072;-75
2023/11/17 07:07:44;;;;;;;15.43;8.40;;;;;;;8.56;66.48;101753.72;6156925;22;110095;-76
2023/11/17 07:10:14;;;;;;;15.63;8.90;;;;;;;8.57;66.61;101752.84;6156440;22;109367;-76
2023/11/17 07:13:01;;;;;;;16.52;8.57;;;;;;;8.56;66.65;101754.59;6154842;22;124552;-75
2023/11/17 07:15:28;;;;;;;;;;;;;;;8.57;66.54;101758.13;6158157;22;123972;-75
2023/11/17 07:17:58;;;;;;;16.92;8.90;;;;;;;8.57;66.03;101766.91;6158303;22;109291;-76
2023/11/17 07:20:26;;;;;;;15.88;8.95;;;;;;;8.57;66.52;101763.41;6157778;22;108794;-77
2023/11/17 07:23:03;;;;;;;17.42;9.10;;;;;;;8.56;66.46;101764.28;6155279;22;124338;-77
2023/11/17 07:25:31;;;;;;;17.38;9.13;;;;;;;8.57;66.39;101766.03;6156742;22;124505;-77
2023/11/17 07:27:59;;;;;;;14.25;9.23;;;;;;;8.57;66.51;101771.31;6156699;22;109276;-76
2023/11/17 07:30:35;;;;;;;17.08;8.52;;;;;;;8.59;66.72;101769.50;6156078;22;109076;-78
2023/11/17 07:33:02;;;;;;;11.23;5.78;;;;;;;8.59;66.67;101769.50;6155895;22;124212;-77
2023/11/17 07:35:44;;;;;;;11.02;5.93;;;;;;;8.59;66.61;101769.50;6156697;22;124640;-78
2023/11/17 07:38:11;;;;;;;9.98;6.00;;;;;;;8.62;66.43;101771.22;6157304;22;109469;-77
2023/11/17 07:41:00;;;;;;;12.13;6.10;;;;;;;8.62;66.37;101779.97;6157573;22;109201;-77
2023/11/17 07:43:27;;;;;;;12.02;6.07;;;;;;;8.63;66.45;101771.19;6154717;22;124176;-76
2023/11/17 07:45:55;;;;;;;9.88;5.38;;;;;;;8.64;66.38;101779.97;6156680;22;124265;-76
2023/11/17 07:48:23;;;;;;;11.43;6.13;;;;;;;8.66;66.49;101781.66;6156422;22;110523;-76
2023/11/17 07:50:53;;;;;;;9.88;5.57;;;;;;;8.68;66.40;101779.88;6157274;22;109979;-77
2023/11/17 07:53:20;;;;;;;11.35;5.82;;;;;;;8.66;66.36;101781.66;6156569;22;123978;-76
2023/11/17 07:55:52;;;;;;;11.05;5.65;;;;;;;8.64;66.39;101794.03;6157086;22;123943;-77
2023/11/17 07:58:20;;;;;;;11.00;5.38;;;;;;;8.63;66.41;101787.03;6155138;22;108958;-76
2023/11/17 08:00:50;;;;;;;9.95;5.90;;;;;;;8.62;66.27;101795.81;6155510;22;108457;-76
2023/11/17 08:03:19;;;;;;;11.02;5.53;;;;;;;8.62;66.26;101793.19;6155357;22;124034;-76
2023/11/17 08:05:47;;;;;;;10.70;5.43;;;;;;;8.60;66.76;101797.63;6156531;22;123853;-77
2023/11/17 08:08:16;;;;;;;12.13;5.82;;;;;;;8.60;66.39;101813.47;6158229;22;109815;-77
2023/11/17 08:10:47;;;;;;;12.40;5.63;;;;;;;8.60;66.23;101816.13;6156916;22;108607;-76
2023/11/17 08:13:15;;;;;;;12.52;5.72;;;;;;;8.65;66.56;101821.31;6154645;22;123847;-77
2023/11/17 08:15:54;;;;;;;10.50;5.45;;;;;;;8.67;66.52;101820.38;6159564;22;124039;-77
2023/11/17 08:18:45;;;;;;;11.48;6.00;;;;;;;8.71;66.65;101816.75;6158279;22;109749;-77
2023/11/17 08:21:13;;;;;;;12.63;6.63;;;;;;;8.77;66.59;101821.91;6152240;22;108756;-77
2023/11/17 08:23:42;;;;;;;11.48;6.18;;;;;;;8.77;66.25;101821.91;6152943;22;123791;-77
2023/11/17 08:26:14;;;;;;;12.23;6.38;;;;;;;8.77;66.49;101819.25;6154795;22;123725;-76
2023/11/17 08:28:44;;;;;;;14.75;6.72;;;;;;;8.80;66.46;101825.38;6156807;22;108986;-77
2023/11/17 08:31:17;;;;;;;11.93;6.28;;;;;;;8.84;66.51;101832.34;6155383;22;109413;-77
2023/11/17 08:33:46;;;;;;;12.60;6.07;;;;;;;8.88;66.79;101834.03;6155241;22;124733;-78
2023/11/17 08:36:13;;;;;;;15.93;7.00;;;;;;;8.92;66.70;101825.97;6155085;22;124063;-76
2023/11/17 08:38:44;;;;;;;13.57;6.88;;;;;;;8.97;66.88;101836.47;6154757;22;110328;-75
2023/11/17 08:41:11;;;;;;;14.00;6.97;;;;;;;8.99;66.63;101837.28;6153211;22;108400;-75
2023/11/17 08:43:40;;;;;;;18.02;6.95;;;;;;;9.02;66.71;101839.84;6154871;22;125125;-76
2023/11/17 08:46:08;;;;;;;13.93;6.80;;;;;;;9.06;66.71;101843.28;6153435;22;123724;-75
2023/11/17 08:48:36;;;;;;;13.88;7.25;;;;;;;9.09;66.75;101844.09;6154220;22;109629;-75
2023/11/17 08:51:05;;;;;;;15.05;7.13;;;;;;;9.14;66.85;101847.50;6153825;22;108701;-75
2023/11/17 08:53:32;;;;;;;14.48;7.15;;;;;;;9.19;66.58;101841.25;6152011;22;124251;-75
2023/11/17 08:56:02;;;;;;;18.63;7.65;;;;;;;9.22;66.59;101843.84;6155493;22;124340;-75
2023/11/17 08:58:29;;;;;;;13.13;7.05;;;;;;;9.27;66.51;101852.53;6178358;22;109288;-75
2023/11/17 09:00:57;;;;;;;16.45;7.43;;;;;;;9.32;66.67;101840.06;6156975;22;109358;-75
2023/11/17 09:03:25;;;;;;;17.20;8.20;;;;;;;9.36;66.83;101847.00;6155482;22;123913;-76
2023/11/17 09:05:53;;;;;;;14.02;7.47;;;;;;;9.41;66.66;101850.41;6159093;22;124082;-78
2023/11/17 09:08:20;;;;;;;14.68;8.60;;;;;;;9.45;66.77;101851.22;6157735;22;109244;-78
2023/11/17 09:10:48;;;;;;;16.10;7.22;;;;;;;9.48;66.72;101846.72;6157764;22;109221;-78
2023/11/17 09:13:17;;;;;;;17.58;7.95;;;;;;;9.53;66.69;101855.41;6157802;22;124444;-78
2023/11/17 09:15:45;;;;;;;15.98;7.53;;;;;;;9.61;66.63;101851.72;6157654;22;124161;-78
2023/11/17 09:18:13;;;;;;;23.30;12.95;;;;;;;9.65;66.81;101854.25;6159018;22;110138;-78
2023/11/17 09:20:42;;;;;;;24.05;13.45;;;;;;;9.71;66.77;101861.16;6156822;22;109186;-78
2023/11/17 09:23:09;;;;;;;23.50;13.45;;;;;;;9.74;66.81;101869.03;6154306;22;124203;-78
2023/11/17 09:25:37;;;;;;;25.95;13.60;;;;;;;9.78;67.02;101861.88;6156736;22;123992;-78
2023/11/17 09:28:04;;;;;;;27.70;15.02;;;;;;;9.82;66.80;101867.03;6156478;22;110771;-79
2023/11/17 09:30:32;;;;;;;25.13;14.05;;;;;;;9.85;66.66;101861.69;6157274;22;110338;-79
2023/11/17 09:33:02;;;;;;;26.95;15.48;;;;;;;9.89;66.73;101870.41;6155518;22;123250;-78
2023/11/17 09:35:32;;;;;;;28.27;14.90;;;;;;;9.91;66.63;101869.47;6155587;22;123105;-78
2023/11/17 09:38:01;;;;;;;22.38;10.98;;;;;;;9.94;66.81;101874.69;6155456;22;108143;-78
2023/11/17 09:40:33;;;;;;;21.73;11.15;;;;;;;9.99;66.67;101873.69;6155148;22;109351;-78
2023/11/17 09:43:16;;;;;;;32.30;13.27;;;;;;;10.02;66.64;101873.59;6155182;22;124397;-79
2023/11/17 09:45:47;;;;;;;29.67;15.05;;;;;;;10.04;66.75;101883.25;6155122;22;121889;-79
2023/11/17 09:48:16;;;;;;;30.02;15.77;;;;;;;10.09;66.59;101883.97;6157649;22;108874;-78
2023/11/17 09:50:45;;;;;;;31.80;16.58;;;;;;;10.12;66.73;101896.28;6157202;22;110202;-79
2023/11/17 09:53:17;;;;;;;27.13;11.60;;;;;;;10.17;66.74;101893.50;6157009;22;124277;-79
2023/11/17 09:55:48;;;;;;;27.77;11.85;;;;;;;10.18;66.66;101885.50;6170724;22;124264;-79
2023/11/17 09:58:17;;;;;;;26.88;12.23;;;;;;;10.21;66.61;101895.16;6177411;22;109808;-79
2023/11/17 10:00:46;;;;;;;26.70;11.90;;;;;;;10.25;66.68;101897.69;6197473;22;109592;-79
2023/11/17 10:03:14;;;;;;;26.88;12.20;;;;;;;10.28;66.75;101897.63;6209372;22;124716;-79
2023/11/17 10:05:42;;;;;;;27.58;11.30;;;;;;;10.31;66.54;101901.97;6204696;22;124448;-79
2023/11/17 10:08:17;;;;;;;26.13;11.45;;;;;;;10.31;66.72;101908.13;6155260;22;109581;-79
2023/11/17 10:10:47;;;;;;;29.03;11.47;;;;;;;10.32;66.68;101903.69;6180316;22;109801;-79
2023/11/17 10:13:18;;;;;;;30.17;11.77;;;;;;;10.37;66.72;101906.25;6179511;22;124227;-79
2023/11/17 10:15:52;;;;;;;27.98;11.35;;;;;;;10.41;66.71;101913.19;6181385;22;123986;-78
2023/11/17 10:18:24;;;;;;;28.58;11.40;;;;;;;10.46;66.73;101906.00;6182075;22;110733;-79
2023/11/17 10:20:53;;;;;;;33.60;16.33;;;;;;;10.50;66.54;101907.66;6177259;22;109501;-79
2023/11/17 10:23:21;;;;;;;38.47;17.52;;;;;;;10.55;66.76;101899.56;6179577;22;124818;-78
2023/11/17 10:25:54;;;;;;;33.67;17.02;;;;;;;10.59;66.52;101902.09;6154039;22;124867;-79
2023/11/17 10:28:27;;;;;;;35.35;17.55;;;;;;;10.63;66.51;101898.44;6177089;22;109934;-79
2023/11/17 10:31:00;;;;;;;33.42;16.75;;;;;;;10.64;66.72;101900.19;6180202;22;110135;-79
2023/11/17 10:33:29;;;;;;;32.67;16.42;;;;;;;10.68;66.66;101896.53;6178435;22;124148;-79
2023/11/17 10:36:04;;;;;;;34.88;17.15;;;;;;;10.74;66.71;101897.25;6179615;22;123603;-79
2023/11/17 10:38:35;;;;;;;31.67;15.10;;;;;;;10.79;66.67;101903.28;6155463;22;110214;-78
2023/11/17 10:41:14;;;;;;;33.92;17.10;;;;;;;10.84;66.61;101912.00;6180297;22;110126;-78
2023/11/17 10:43:49;;;;;;;36.08;17.25;;;;;;;10.86;66.51;101911.03;6155268;22;123119;-78
2023/11/17 10:46:23;;;;;;;34.47;17.17;;;;;;;10.88;66.46;101913.63;6179873;22;122636;-78
2023/11/17 10:48:51;;;;;;;37.50;17.15;;;;;;;10.89;66.43;101921.53;6155005;22;108600;-79
2023/11/17 10:51:19;;;;;;;33.00;17.08;;;;;;;10.94;66.42;101918.75;6182147;22;109610;-79
2023/11/17 10:54:06;;;;;;;36.90;17.95;;;;;;;10.96;66.71;101922.22;6180374;22;125823;-79
2023/11/17 10:56:35;;;;;;;34.67;17.08;;;;;;;10.99;66.41;101923.94;6180041;22;124808;-78
2023/11/17 10:59:04;;;;;;;32.53;17.08;;;;;;;11.01;66.50;101930.06;6179900;22;109300;-79
2023/11/17 11:01:31;;;;;;;37.03;17.38;;;;;;;11.04;66.40;101930.84;6181621;22;108709;-80
2023/11/17 11:04:01;;;;;;;35.40;16.55;;;;;;;11.06;66.47;101918.41;6180424;22;124568;-78
2023/11/17 11:06:29;;;;;;;32.13;16.83;;;;;;;11.09;66.70;101928.91;6182028;22;123817;-78
2023/11/17 11:09:08;;;;;;;34.28;16.73;;;;;;;11.14;66.54;101922.59;6181701;22;110396;-79
2023/11/17 11:11:36;;;;;;;32.08;16.45;;;;;;;11.18;66.46;101924.25;6181710;22;110179;-78
2023/11/17 11:14:04;;;;;;;34.20;17.30;;;;;;;11.21;66.42;101921.50;6181461;22;123900;-79
2023/11/17 11:16:32;;;;;;;32.90;17.02;;;;;;;11.26;66.52;101931.06;6184174;22;124091;-79
2023/11/17 11:19:01;;;;;;;35.60;17.05;;;;;;;11.32;66.46;101931.78;6178442;22;109288;-79
2023/11/17 11:21:30;;;;;;;30.30;16.65;;;;;;;11.38;66.53;101937.78;6180292;22;109922;-79
2023/11/17 11:24:00;;;;;;;33.92;17.60;;;;;;;11.43;66.46;101933.19;6181649;22;124433;-79
2023/11/17 11:26:28;;;;;;;36.35;17.98;;;;;;;11.48;66.23;101941.88;6180561;22;123252;-79
2023/11/17 11:28:58;;;;;;;36.30;19.45;;;;;;;11.53;66.36;101943.50;6180319;22;108744;-79
2023/11/17 11:31:26;;;;;;;40.33;20.33;;;;;;;11.55;66.16;101933.72;6182248;22;110940;-80
2023/11/17 11:33:53;;;;;;;33.03;19.60;;;;;;;11.58;66.00;101941.56;6183026;22;123969;-79